createdAt,value
2019-06-10T00:00:36.929Z,21.75
2019-06-10T00:03:11.476Z,21.73
2019-06-10T00:05:44.947Z,21.70
2019-06-10T00:08:20.706Z,21.71
2019-06-10T00:10:53.644Z,21.71
2019-06-10T00:13:27.614Z,21.71
2019-06-10T00:16:02.662Z,21.71
2019-06-10T00:18:42.168Z,21.68
2019-06-10T00:21:11.289Z,21.62
2019-06-10T00:23:44.536Z,21.49
2019-06-10T00:26:17.632Z,21.45
2019-06-10T00:28:51.884Z,21.44
2019-06-10T00:31:24.912Z,21.46
2019-06-10T00:33:59.291Z,21.47
2019-06-10T00:36:32.792Z,21.50
2019-06-10T00:39:08.938Z,21.45
2019-06-10T00:41:43.521Z,21.40
2019-06-10T00:44:16.872Z,21.37
2019-06-10T00:46:51.660Z,21.40
2019-06-10T00:49:25.978Z,21.46
2019-06-10T00:52:01.239Z,21.48
2019-06-10T00:54:34.783Z,21.46
2019-06-10T00:57:10.030Z,21.40
2019-06-10T00:59:43.720Z,21.38
2019-06-10T01:02:16.983Z,21.37
2019-06-10T01:04:51.387Z,21.39
2019-06-10T01:07:24.744Z,21.42
2019-06-10T01:10:00.979Z,21.38
2019-06-10T01:12:33.653Z,21.31
2019-06-10T01:15:07.427Z,21.29
2019-06-10T01:17:41.725Z,21.23
2019-06-10T01:20:16.116Z,21.27
2019-06-10T01:22:51.500Z,21.32
2019-06-10T01:25:24.068Z,21.32
2019-06-10T01:27:57.255Z,21.28
2019-06-10T01:30:31.224Z,21.28
2019-06-10T01:33:04.796Z,21.32
2019-06-10T01:35:37.901Z,21.35
2019-06-10T01:38:13.453Z,21.34
2019-06-10T01:40:46.039Z,21.33
2019-06-10T01:43:21.230Z,21.35
2019-06-10T01:45:53.906Z,21.36
2019-06-10T01:48:40.466Z,21.34
2019-06-10T01:51:02.044Z,21.35
2019-06-10T01:53:35.251Z,21.39
2019-06-10T01:56:10.378Z,21.35
2019-06-10T01:58:43.627Z,21.27
2019-06-10T02:01:23.356Z,21.14
2019-06-10T02:03:56.425Z,21.10
2019-06-10T02:06:31.494Z,21.09
2019-06-10T02:09:07.322Z,21.09
2019-06-10T02:11:41.363Z,21.07
2019-06-10T02:14:17.761Z,21.09
2019-06-10T02:16:51.609Z,21.09
2019-06-10T02:19:25.060Z,21.11
2019-06-10T02:21:58.153Z,21.17
2019-06-10T02:24:31.781Z,21.25
2019-06-10T02:27:06.129Z,21.29
2019-06-10T02:29:41.218Z,21.34
2019-06-10T02:32:20.076Z,21.36
2019-06-10T02:35:03.536Z,21.38
2019-06-10T02:37:31.745Z,21.41
2019-06-10T02:40:04.087Z,21.43
2019-06-10T02:42:37.276Z,21.46
2019-06-10T02:45:13.785Z,21.46
2019-06-10T02:47:45.716Z,21.45
2019-06-10T02:50:32.089Z,21.47
2019-06-10T02:52:58.289Z,21.50
2019-06-10T02:55:35.018Z,21.52
2019-06-10T02:58:09.633Z,21.52
2019-06-10T03:00:48.273Z,21.48
2019-06-10T03:03:22.837Z,21.44
2019-06-10T03:05:53.627Z,21.43
2019-06-10T03:08:31.611Z,21.43
2019-06-10T03:11:04.125Z,21.44
2019-06-10T03:13:37.154Z,21.50
2019-06-10T03:16:28.123Z,21.52
2019-06-10T03:19:03.047Z,21.52
2019-06-10T03:21:36.214Z,21.48
2019-06-10T03:24:09.316Z,21.47
2019-06-10T03:26:42.833Z,21.49
2019-06-10T03:29:16.514Z,21.49
2019-06-10T03:31:49.635Z,21.53
2019-06-10T03:34:30.740Z,21.58
2019-06-10T03:36:57.996Z,21.55
2019-06-10T03:39:32.355Z,21.49
2019-06-10T03:42:05.269Z,21.45
2019-06-10T03:44:38.455Z,21.47
2019-06-10T03:47:12.170Z,21.52
2019-06-10T03:49:52.400Z,21.61
2019-06-10T03:52:19.573Z,21.71
2019-06-10T03:54:52.637Z,21.79
2019-06-10T03:57:26.945Z,21.81
2019-06-10T04:00:02.258Z,21.86
2019-06-10T04:02:36.438Z,21.84
2019-06-10T04:05:13.085Z,21.90
2019-06-10T04:07:44.986Z,21.96
2019-06-10T04:10:17.990Z,22.03
2019-06-10T04:12:52.373Z,22.05
2019-06-10T04:15:28.363Z,22.09
2019-06-10T04:18:00.044Z,22.12
2019-06-10T04:20:34.030Z,22.10
2019-06-10T04:23:07.334Z,22.09
2019-06-10T04:25:43.578Z,22.07
2019-06-10T04:28:17.749Z,22.03
2019-06-10T04:30:53.207Z,22.12
2019-06-10T04:33:26.194Z,22.12
2019-06-10T04:35:59.662Z,22.12
2019-06-10T04:38:32.964Z,22.18
2019-06-10T04:41:06.427Z,22.20
2019-06-10T04:43:40.259Z,22.23
2019-06-10T04:46:13.379Z,22.29
2019-06-10T04:48:47.278Z,22.35
2019-06-10T04:51:22.926Z,22.45
2019-06-10T04:53:54.851Z,22.50
2019-06-10T04:56:29.333Z,22.47
2019-06-10T04:59:03.262Z,22.47
2019-06-10T05:01:36.758Z,22.53
2019-06-10T05:04:12.576Z,22.59
2019-06-10T05:06:45.686Z,22.70
2019-06-10T05:09:19.179Z,22.80
2019-06-10T05:11:52.356Z,22.87
2019-06-10T05:14:28.538Z,22.94
2019-06-10T05:17:02.255Z,23.05
2019-06-10T05:19:38.541Z,23.10
2019-06-10T05:22:12.507Z,23.17
2019-06-10T05:24:45.657Z,23.22
2019-06-10T05:27:20.455Z,23.30
2019-06-10T05:29:53.658Z,23.34
2019-06-10T05:32:27.842Z,23.39
2019-06-10T05:35:03.489Z,23.47
2019-06-10T05:37:36.057Z,23.52
2019-06-10T05:40:09.166Z,23.58
2019-06-10T05:42:42.742Z,23.60
2019-06-10T05:45:16.142Z,23.64
2019-06-10T05:47:49.436Z,23.71
2019-06-10T05:50:24.049Z,23.85
2019-06-10T05:52:57.220Z,23.91
2019-06-10T05:55:33.479Z,23.94
2019-06-10T05:58:06.127Z,23.92
2019-06-10T06:00:42.847Z,23.91
2019-06-10T06:03:16.155Z,23.89
2019-06-10T06:05:48.992Z,23.95
2019-06-10T06:08:22.845Z,23.99
2019-06-10T06:10:56.211Z,24.01
2019-06-10T06:13:32.702Z,24.06
2019-06-10T06:16:06.021Z,24.12
2019-06-10T06:18:41.981Z,24.16
2019-06-10T06:21:25.317Z,24.16
2019-06-10T06:23:52.815Z,24.13
2019-06-10T06:26:28.371Z,24.13
2019-06-10T06:29:02.270Z,24.21
2019-06-10T06:31:36.494Z,24.32
2019-06-10T06:34:13.737Z,24.41
2019-06-10T06:36:46.846Z,24.45
2019-06-10T06:39:19.692Z,24.52
2019-06-10T06:41:53.650Z,24.58
2019-06-10T06:44:27.559Z,24.65
2019-06-10T06:47:02.711Z,24.74
2019-06-10T06:49:37.098Z,24.79
2019-06-10T06:52:12.834Z,24.81
2019-06-10T06:54:46.148Z,24.83
2019-06-10T06:57:19.327Z,24.89
2019-06-10T06:59:52.713Z,24.96
2019-06-10T07:02:25.772Z,25.03
2019-06-10T07:04:58.700Z,25.09
2019-06-10T07:07:33.084Z,25.13
2019-06-10T07:10:09.031Z,25.27
2019-06-10T07:12:43.933Z,25.39
2019-06-10T07:15:19.330Z,25.42
2019-06-10T07:17:52.644Z,25.53
2019-06-10T07:20:25.655Z,25.67
2019-06-10T07:22:58.698Z,25.76
2019-06-10T07:25:34.369Z,25.87
2019-06-10T07:28:06.647Z,25.99
2019-06-10T07:30:47.266Z,26.08
2019-06-10T07:33:15.294Z,26.13
2019-06-10T07:35:48.094Z,26.18
2019-06-10T07:38:24.031Z,26.20
2019-06-10T07:40:56.038Z,26.26
2019-06-10T07:43:29.382Z,26.36
2019-06-10T07:46:03.618Z,26.47
2019-06-10T07:48:39.558Z,26.53
2019-06-10T07:51:13.397Z,26.60
2019-06-10T07:53:46.898Z,26.72
2019-06-10T07:56:19.894Z,26.86
2019-06-10T07:58:53.163Z,26.98
2019-06-10T08:01:26.591Z,27.08
2019-06-10T08:03:59.539Z,27.12
2019-06-10T08:06:34.773Z,27.21
2019-06-10T08:09:07.970Z,27.31
2019-06-10T08:11:44.936Z,27.40
2019-06-10T08:14:16.298Z,27.46
2019-06-10T08:16:52.902Z,27.49
2019-06-10T08:19:34.320Z,27.46
2019-06-10T08:22:02.903Z,27.49
2019-06-10T08:24:37.326Z,27.49
2019-06-10T08:27:12.082Z,27.48
2019-06-10T08:29:48.047Z,27.45
2019-06-10T08:32:24.367Z,27.50
2019-06-10T08:34:56.618Z,27.61
2019-06-10T08:37:33.044Z,27.71
2019-06-10T08:40:07.053Z,27.81
2019-06-10T08:42:43.621Z,27.94
2019-06-10T08:45:17.346Z,28.07
2019-06-10T08:47:50.044Z,28.15
2019-06-10T08:50:24.883Z,28.25
2019-06-10T08:53:10.360Z,28.39
2019-06-10T08:55:35.404Z,28.50
2019-06-10T08:58:13.016Z,28.64
2019-06-10T09:00:49.374Z,28.73
2019-06-10T09:03:23.310Z,28.82
2019-06-10T09:05:58.451Z,28.89
2019-06-10T09:08:32.854Z,28.97
2019-06-10T09:11:05.993Z,29.08
2019-06-10T09:13:40.754Z,29.29
2019-06-10T09:16:19.167Z,29.40
2019-06-10T09:18:55.018Z,29.51
2019-06-10T09:21:26.566Z,29.66
2019-06-10T09:24:01.255Z,29.78
2019-06-10T09:26:34.210Z,29.93
2019-06-10T09:29:07.685Z,30.09
2019-06-10T09:31:46.713Z,30.17
2019-06-10T09:34:36.746Z,30.27
2019-06-10T09:37:12.434Z,30.43
2019-06-10T09:39:51.836Z,30.52
2019-06-10T09:42:23.878Z,30.48
2019-06-10T09:44:57.178Z,30.57
2019-06-10T09:47:34.012Z,30.69
2019-06-10T09:50:08.151Z,30.86
2019-06-10T09:52:47.456Z,30.95
2019-06-10T09:55:23.320Z,31.10
2019-06-10T09:57:59.913Z,31.19
2019-06-10T10:00:47.531Z,31.18
2019-06-10T10:03:19.605Z,31.19
2019-06-10T10:06:10.087Z,31.30
2019-06-10T10:08:32.887Z,31.38
2019-06-10T10:11:06.026Z,31.51
2019-06-10T10:13:39.141Z,31.71
2019-06-10T10:16:13.142Z,31.82
2019-06-10T10:18:50.439Z,31.96
2019-06-10T10:21:22.304Z,32.09
2019-06-10T10:24:06.942Z,32.21
2019-06-10T10:26:30.573Z,32.33
2019-06-10T10:29:05.164Z,32.40
2019-06-10T10:31:39.386Z,32.50
2019-06-10T10:34:13.643Z,32.62
2019-06-10T10:36:48.446Z,32.77
2019-06-10T10:39:25.168Z,32.90
2019-06-10T10:41:58.111Z,33.01
2019-06-10T10:44:32.003Z,32.99
2019-06-10T10:47:05.431Z,33.06
2019-06-10T10:49:38.838Z,33.06
2019-06-10T10:52:13.750Z,33.07
2019-06-10T10:54:47.946Z,33.22
2019-06-10T10:57:23.153Z,33.27
2019-06-10T10:59:56.389Z,33.22
2019-06-10T11:02:32.059Z,33.34
2019-06-10T11:05:06.088Z,33.48
2019-06-10T11:07:42.293Z,33.55
2019-06-10T11:10:15.488Z,33.49
2019-06-10T11:12:53.731Z,33.52
2019-06-10T11:15:29.039Z,33.55
2019-06-10T11:18:05.926Z,33.28
2019-06-10T11:20:39.129Z,32.99
2019-06-10T11:23:12.459Z,33.14
2019-06-10T11:25:45.834Z,33.32
2019-06-10T11:28:22.807Z,33.52
2019-06-10T11:30:57.399Z,33.62
2019-06-10T11:33:32.653Z,33.76
2019-06-10T11:36:04.759Z,33.92
2019-06-10T11:38:37.879Z,34.14
2019-06-10T11:41:13.386Z,34.24
2019-06-10T11:43:50.489Z,34.34
2019-06-10T11:46:23.851Z,34.33
2019-06-10T11:48:58.919Z,34.33
2019-06-10T11:51:33.025Z,34.28
2019-06-10T11:54:06.037Z,34.23
2019-06-10T11:56:39.129Z,34.01
2019-06-10T11:59:13.550Z,33.82
2019-06-10T12:01:48.971Z,33.83
2019-06-10T12:04:23.888Z,33.91
2019-06-10T12:06:57.105Z,33.88
2019-06-10T12:09:33.367Z,33.87
2019-06-10T12:12:05.893Z,34.08
2019-06-10T12:14:38.988Z,34.26
2019-06-10T12:17:24.872Z,34.39
2019-06-10T12:19:49.783Z,34.46
2019-06-10T12:22:22.886Z,34.61
2019-06-10T12:25:24.195Z,34.65
2019-06-10T12:27:32.827Z,34.72
2019-06-10T12:30:09.483Z,34.70
2019-06-10T12:32:44.841Z,34.66
2019-06-10T12:35:18.130Z,34.77
2019-06-10T12:37:56.270Z,34.95
2019-06-10T12:40:27.366Z,35.01
2019-06-10T12:43:06.791Z,35.20
2019-06-10T12:45:38.866Z,35.19
2019-06-10T12:48:14.466Z,35.12
2019-06-10T12:50:47.922Z,35.25
2019-06-10T12:53:22.912Z,35.33
2019-06-10T12:55:57.249Z,35.41
2019-06-10T12:58:33.747Z,35.40
2019-06-10T13:01:08.015Z,35.45
2019-06-10T13:03:43.747Z,35.43
2019-06-10T13:06:17.380Z,35.43
2019-06-10T13:08:52.978Z,35.52
2019-06-10T13:11:25.267Z,35.62
2019-06-10T13:14:00.036Z,35.71
2019-06-10T13:16:34.361Z,35.33
2019-06-10T13:19:14.545Z,34.97
2019-06-10T13:21:49.778Z,34.97
2019-06-10T13:24:23.072Z,35.00
2019-06-10T13:26:56.546Z,35.04
2019-06-10T13:29:33.151Z,35.09
2019-06-10T13:32:07.686Z,35.23
2019-06-10T13:34:43.916Z,35.26
2019-06-10T13:37:17.091Z,35.37
2019-06-10T13:39:52.307Z,35.60
2019-06-10T13:42:27.752Z,35.85
2019-06-10T13:45:06.768Z,36.05
2019-06-10T13:47:42.840Z,36.14
2019-06-10T13:50:19.210Z,36.12
2019-06-10T13:52:52.189Z,36.20
2019-06-10T13:55:27.056Z,36.32
2019-06-10T13:58:03.931Z,36.33
2019-06-10T14:00:45.841Z,36.19
2019-06-10T14:03:15.886Z,36.06
2019-06-10T14:05:46.787Z,36.05
2019-06-10T14:08:19.221Z,36.05
2019-06-10T14:10:55.146Z,36.14
2019-06-10T14:13:33.264Z,36.18
2019-06-10T14:16:07.603Z,36.02
2019-06-10T14:18:42.375Z,35.79
2019-06-10T14:21:18.734Z,35.50
2019-06-10T14:23:52.100Z,35.17
2019-06-10T14:26:36.770Z,34.86
2019-06-10T14:29:02.894Z,34.61
2019-06-10T14:31:43.559Z,34.47
2019-06-10T14:34:18.036Z,34.55
2019-06-10T14:36:52.484Z,34.74
2019-06-10T14:39:25.839Z,34.92
2019-06-10T14:41:59.442Z,35.09
2019-06-10T14:44:33.040Z,35.37
2019-06-10T14:47:06.580Z,35.45
2019-06-10T14:49:42.341Z,35.34
2019-06-10T14:52:16.947Z,35.17
2019-06-10T14:54:50.071Z,35.03
2019-06-10T14:57:24.042Z,34.79
2019-06-10T14:59:57.466Z,34.62
2019-06-10T15:02:33.304Z,34.47
2019-06-10T15:05:07.226Z,34.43
2019-06-10T15:07:42.288Z,34.37
2019-06-10T15:10:17.693Z,34.25
2019-06-10T15:12:52.924Z,34.16
2019-06-10T15:15:29.619Z,34.11
2019-06-10T15:18:03.116Z,34.16
2019-06-10T15:20:37.257Z,34.44
2019-06-10T15:23:11.487Z,34.77
2019-06-10T15:25:52.442Z,34.92
2019-06-10T15:28:21.107Z,35.16
2019-06-10T15:30:55.093Z,35.35
2019-06-10T15:33:32.677Z,35.51
2019-06-10T15:36:06.050Z,35.48
2019-06-10T15:38:39.281Z,35.24
2019-06-10T15:41:18.298Z,35.12
2019-06-10T15:43:52.975Z,34.74
2019-06-10T15:46:25.565Z,34.47
2019-06-10T15:48:58.604Z,34.25
2019-06-10T15:51:33.129Z,34.15
2019-06-10T15:54:06.319Z,34.36
2019-06-10T15:56:49.915Z,34.61
2019-06-10T15:59:18.630Z,34.74
2019-06-10T16:01:53.114Z,34.51
2019-06-10T16:04:29.915Z,34.37
2019-06-10T16:07:03.170Z,34.35
2019-06-10T16:09:36.416Z,34.15
2019-06-10T16:12:14.718Z,34.04
2019-06-10T16:14:46.358Z,34.07
2019-06-10T16:17:19.359Z,34.16
2019-06-10T16:19:53.366Z,34.00
2019-06-10T16:22:26.593Z,33.72
2019-06-10T16:24:59.721Z,33.49
2019-06-10T16:27:47.415Z,33.34
2019-06-10T16:30:09.075Z,33.29
2019-06-10T16:32:46.323Z,33.43
2019-06-10T16:35:18.882Z,33.35
2019-06-10T16:37:54.561Z,33.26
2019-06-10T16:40:27.363Z,33.45
2019-06-10T16:43:00.583Z,33.62
2019-06-10T16:45:34.095Z,33.69
2019-06-10T16:48:08.386Z,33.76
2019-06-10T16:50:42.605Z,33.89
2019-06-10T16:53:15.159Z,34.00
2019-06-10T16:55:48.204Z,34.03
2019-06-10T16:58:27.935Z,33.83
2019-06-10T17:01:02.952Z,33.55
2019-06-10T17:03:35.224Z,33.29
2019-06-10T17:06:08.341Z,33.06
2019-06-10T17:08:43.510Z,32.88
2019-06-10T17:11:16.619Z,32.65
2019-06-10T17:13:52.562Z,32.37
2019-06-10T17:16:27.323Z,31.98
2019-06-10T17:19:02.278Z,31.87
2019-06-10T17:21:39.325Z,31.88
2019-06-10T17:24:13.337Z,31.94
2019-06-10T17:26:46.447Z,31.87
2019-06-10T17:29:19.826Z,31.65
2019-06-10T17:31:53.247Z,31.53
2019-06-10T17:34:28.062Z,31.44
2019-06-10T17:37:03.111Z,31.35
2019-06-10T17:39:36.367Z,31.15
2019-06-10T17:42:12.246Z,30.87
2019-06-10T17:44:45.049Z,30.53
2019-06-10T17:47:18.177Z,30.23
2019-06-10T17:49:51.383Z,29.93
2019-06-10T17:52:25.956Z,29.61
2019-06-10T17:54:59.112Z,29.33
2019-06-10T17:57:36.065Z,29.09
2019-06-10T18:00:14.102Z,28.80
2019-06-10T18:02:45.272Z,28.55
2019-06-10T18:05:18.941Z,28.37
2019-06-10T18:07:52.814Z,28.21
2019-06-10T18:10:27.595Z,28.08
2019-06-10T18:13:13.142Z,27.97
2019-06-10T18:15:36.944Z,27.87
2019-06-10T18:18:12.818Z,27.75
2019-06-10T18:20:45.868Z,27.68
2019-06-10T18:23:22.899Z,27.55
2019-06-10T18:25:55.888Z,27.50
2019-06-10T18:28:31.355Z,27.38
2019-06-10T18:31:06.103Z,27.32
2019-06-10T18:33:42.484Z,27.24
2019-06-10T18:36:17.286Z,27.20
2019-06-10T18:38:52.699Z,27.19
2019-06-10T18:41:27.848Z,27.15
2019-06-10T18:44:22.596Z,27.10
2019-06-10T18:46:51.885Z,27.01
2019-06-10T18:49:26.425Z,26.93
2019-06-10T18:52:00.727Z,26.87
2019-06-10T18:54:37.353Z,26.82
2019-06-10T18:57:11.660Z,26.82
2019-06-10T18:59:45.717Z,26.75
2019-06-10T19:02:19.668Z,26.67
2019-06-10T19:04:54.784Z,26.60
2019-06-10T19:07:33.485Z,26.50
2019-06-10T19:10:09.209Z,26.47
2019-06-10T19:12:44.583Z,26.45
2019-06-10T19:15:20.413Z,26.43
2019-06-10T19:17:55.409Z,26.41
2019-06-10T19:20:33.592Z,26.35
2019-06-10T19:23:07.071Z,26.30
2019-06-10T19:25:44.426Z,26.19
2019-06-10T19:28:18.592Z,26.16
2019-06-10T19:30:53.403Z,26.14
2019-06-10T19:33:28.444Z,26.12
2019-06-10T19:36:24.833Z,26.07
2019-06-10T19:38:58.657Z,26.05
2019-06-10T19:41:36.607Z,25.99
2019-06-10T19:44:10.250Z,25.87
2019-06-10T19:46:44.252Z,25.76
2019-06-10T19:49:18.673Z,25.69
2019-06-10T19:51:53.554Z,25.60
2019-06-10T19:54:28.321Z,25.49
2019-06-10T19:57:04.005Z,25.50
2019-06-10T20:00:02.768Z,25.50
2019-06-10T20:02:13.731Z,25.49
2019-06-10T20:04:47.766Z,25.45
2019-06-10T20:07:23.066Z,25.40
2019-06-10T20:09:56.541Z,25.36
2019-06-10T20:12:32.316Z,25.30
2019-06-10T20:15:07.805Z,25.24
2019-06-10T20:17:41.680Z,25.15
2019-06-10T20:20:14.745Z,25.05
2019-06-10T20:22:48.169Z,25.04
2019-06-10T20:25:22.371Z,25.00
2019-06-10T20:27:56.209Z,24.93
2019-06-10T20:30:29.639Z,24.90
2019-06-10T20:33:03.539Z,24.87
2019-06-10T20:35:37.522Z,24.82
2019-06-10T20:38:13.152Z,24.79
2019-06-10T20:40:47.155Z,24.69
2019-06-10T20:43:22.407Z,24.68
2019-06-10T20:45:58.230Z,24.55
2019-06-10T20:48:33.194Z,24.64
2019-06-10T20:51:07.437Z,24.59
2019-06-10T20:53:43.205Z,24.51
2019-06-10T20:56:20.120Z,24.42
2019-06-10T20:58:52.522Z,24.38
2019-06-10T21:01:25.782Z,24.37
2019-06-10T21:03:58.798Z,24.37
2019-06-10T21:06:32.683Z,24.33
2019-06-10T21:09:09.381Z,24.30
2019-06-10T21:11:45.444Z,24.27
2019-06-10T21:14:17.138Z,24.20
2019-06-10T21:16:51.063Z,24.16
2019-06-10T21:19:24.285Z,24.16
2019-06-10T21:21:57.226Z,24.18
2019-06-10T21:24:32.229Z,24.15
2019-06-10T21:27:05.138Z,24.13
2019-06-10T21:29:38.309Z,24.11
2019-06-10T21:32:12.442Z,24.07
2019-06-10T21:34:47.695Z,24.05
2019-06-10T21:37:22.566Z,24.07
2019-06-10T21:39:56.153Z,24.07
2019-06-10T21:42:29.338Z,24.03
2019-06-10T21:45:03.421Z,24.01
2019-06-10T21:47:36.869Z,23.97
2019-06-10T21:50:12.472Z,23.96
2019-06-10T21:52:46.137Z,23.93
2019-06-10T21:55:22.288Z,23.90
2019-06-10T21:57:55.283Z,23.88
2019-06-10T22:00:31.278Z,23.86
2019-06-10T22:03:05.543Z,23.78
2019-06-10T22:05:38.660Z,23.73
2019-06-10T22:08:12.552Z,23.67
2019-06-10T22:10:47.733Z,23.67
2019-06-10T22:13:22.373Z,23.67
2019-06-10T22:16:15.151Z,23.63
2019-06-10T22:18:49.133Z,23.59
2019-06-10T22:21:22.829Z,23.54
2019-06-10T22:23:57.134Z,23.47
2019-06-10T22:26:32.125Z,23.46
2019-06-10T22:29:15.823Z,23.45
2019-06-10T22:31:49.288Z,23.44
2019-06-10T22:34:23.599Z,23.42
2019-06-10T22:36:57.694Z,23.37
2019-06-10T22:39:32.536Z,23.27
2019-06-10T22:42:05.720Z,23.24
2019-06-10T22:44:39.120Z,23.21
2019-06-10T22:47:12.336Z,23.22
2019-06-10T22:49:45.858Z,23.20
2019-06-10T22:52:19.401Z,23.19
2019-06-10T22:54:55.136Z,23.14
2019-06-10T22:57:27.051Z,23.05
2019-06-10T23:00:02.868Z,22.99
2019-06-10T23:02:34.993Z,22.98
2019-06-10T23:05:08.185Z,23.02
2019-06-10T23:07:43.387Z,23.00
2019-06-10T23:10:16.412Z,22.98
2019-06-10T23:12:51.324Z,22.93
2019-06-10T23:15:25.507Z,22.88
2019-06-10T23:18:00.055Z,22.82
2019-06-10T23:20:33.510Z,22.79
2019-06-10T23:23:06.597Z,22.79
2019-06-10T23:25:39.669Z,22.77
2019-06-10T23:28:13.144Z,22.78
2019-06-10T23:30:47.359Z,22.72
2019-06-10T23:33:22.923Z,22.60
2019-06-10T23:35:56.538Z,22.57
2019-06-10T23:38:29.546Z,22.53
2019-06-10T23:41:03.818Z,22.51
2019-06-10T23:43:37.415Z,22.51
2019-06-10T23:46:12.092Z,22.50
2019-06-10T23:48:45.452Z,22.46
2019-06-10T23:51:22.642Z,22.40
2019-06-10T23:53:58.417Z,22.39
2019-06-10T23:56:32.587Z,22.40
2019-06-10T23:59:05.491Z,22.42
